sensor_id;sensor_type;location;lat;lon;timestamp;P1;durP1;ratioP1;P2;durP2;ratioP2
50012;SDS011;35901;48.694;9.476;2024-03-23T00:53:50;20.30;;;17.10;;
50012;SDS011;35901;48.694;9.476;2024-03-23T00:56:16;19.67;;;16.07;;
50012;SDS011;35901;48.694;9.476;2024-03-23T00:58:41;19.77;;;16.07;;
50012;SDS011;35901;48.694;9.476;2024-03-23T01:01:07;14.93;;;13.33;;
50012;SDS011;35901;48.694;9.476;2024-03-23T01:03:33;20.47;;;15.87;;
50012;SDS011;35901;48.694;9.476;2024-03-23T01:05:59;21.90;;;17.17;;
50012;SDS011;35901;48.694;9.476;2024-03-23T01:08:26;21.20;;;17.63;;
50012;SDS011;35901;48.694;9.476;2024-03-23T01:13:22;20.13;;;17.20;;
50012;SDS011;35901;48.694;9.476;2024-03-23T01:15:52;19.90;;;17.80;;
50012;SDS011;35901;48.694;9.476;2024-03-23T01:18:20;24.13;;;19.07;;
50012;SDS011;35901;48.694;9.476;2024-03-23T01:20:47;20.97;;;17.47;;
50012;SDS011;35901;48.694;9.476;2024-03-23T01:23:13;18.63;;;16.13;;
50012;SDS011;35901;48.694;9.476;2024-03-23T01:25:39;21.47;;;18.50;;
50012;SDS011;35901;48.694;9.476;2024-03-23T01:28:05;22.93;;;18.93;;
50012;SDS011;35901;48.694;9.476;2024-03-23T01:30:32;22.07;;;18.60;;
50012;SDS011;35901;48.694;9.476;2024-03-23T01:32:58;24.70;;;19.97;;
50012;SDS011;35901;48.694;9.476;2024-03-23T01:35:23;24.47;;;20.47;;
50012;SDS011;35901;48.694;9.476;2024-03-23T01:37:49;25.17;;;20.80;;
50012;SDS011;35901;48.694;9.476;2024-03-23T01:40:19;26.30;;;21.17;;
50012;SDS011;35901;48.694;9.476;2024-03-23T01:42:57;21.83;;;17.63;;
50012;SDS011;35901;48.694;9.476;2024-03-23T01:45:23;25.50;;;19.70;;
50012;SDS011;35901;48.694;9.476;2024-03-23T01:47:52;22.60;;;19.30;;
50012;SDS011;35901;48.694;9.476;2024-03-23T01:50:19;24.50;;;18.87;;
50012;SDS011;35901;48.694;9.476;2024-03-23T01:52:45;23.67;;;18.50;;
50012;SDS011;35901;48.694;9.476;2024-03-23T01:55:11;24.00;;;19.67;;
50012;SDS011;35901;48.694;9.476;2024-03-23T01:57:37;19.70;;;16.83;;
50012;SDS011;35901;48.694;9.476;2024-03-23T02:00:03;19.70;;;17.40;;
50012;SDS011;35901;48.694;9.476;2024-03-23T02:02:43;21.00;;;16.90;;
50012;SDS011;35901;48.694;9.476;2024-03-23T02:05:12;19.20;;;16.53;;
50012;SDS011;35901;48.694;9.476;2024-03-23T02:07:39;23.20;;;18.67;;
50012;SDS011;35901;48.694;9.476;2024-03-23T02:10:06;19.97;;;17.23;;
50012;SDS011;35901;48.694;9.476;2024-03-23T02:12:32;19.70;;;16.50;;
50012;SDS011;35901;48.694;9.476;2024-03-23T02:14:58;20.43;;;17.70;;
50012;SDS011;35901;48.694;9.476;2024-03-23T02:17:23;25.90;;;19.73;;
50012;SDS011;35901;48.694;9.476;2024-03-23T02:19:50;29.53;;;22.87;;
50012;SDS011;35901;48.694;9.476;2024-03-23T02:22:16;28.57;;;22.73;;
50012;SDS011;35901;48.694;9.476;2024-03-23T02:24:42;27.47;;;21.80;;
50012;SDS011;35901;48.694;9.476;2024-03-23T02:27:08;26.77;;;21.10;;
50012;SDS011;35901;48.694;9.476;2024-03-23T02:29:33;22.33;;;19.00;;
50012;SDS011;35901;48.694;9.476;2024-03-23T02:31:59;29.67;;;23.33;;
50012;SDS011;35901;48.694;9.476;2024-03-23T02:34:25;35.30;;;24.07;;
50012;SDS011;35901;48.694;9.476;2024-03-23T02:36:50;31.40;;;24.53;;
50012;SDS011;35901;48.694;9.476;2024-03-23T02:39:16;32.27;;;24.33;;
50012;SDS011;35901;48.694;9.476;2024-03-23T02:41:42;28.90;;;23.40;;
50012;SDS011;35901;48.694;9.476;2024-03-23T02:44:07;27.80;;;21.40;;
50012;SDS011;35901;48.694;9.476;2024-03-23T02:46:36;26.63;;;21.83;;
50012;SDS011;35901;48.694;9.476;2024-03-23T02:49:03;26.30;;;21.13;;
50012;SDS011;35901;48.694;9.476;2024-03-23T02:51:29;25.33;;;21.33;;
50012;SDS011;35901;48.694;9.476;2024-03-23T02:53:55;26.23;;;21.67;;
50012;SDS011;35901;48.694;9.476;2024-03-23T02:56:21;23.87;;;19.53;;
50012;SDS011;35901;48.694;9.476;2024-03-23T02:58:47;25.53;;;21.37;;
50012;SDS011;35901;48.694;9.476;2024-03-23T03:01:12;20.07;;;17.33;;
50012;SDS011;35901;48.694;9.476;2024-03-23T03:03:38;22.17;;;18.63;;
50012;SDS011;35901;48.694;9.476;2024-03-23T03:06:04;25.83;;;20.60;;
50012;SDS011;35901;48.694;9.476;2024-03-23T03:08:29;23.37;;;20.17;;
50012;SDS011;35901;48.694;9.476;2024-03-23T03:10:55;27.67;;;21.43;;
50012;SDS011;35901;48.694;9.476;2024-03-23T03:13:21;22.93;;;19.93;;
50012;SDS011;35901;48.694;9.476;2024-03-23T03:15:47;25.33;;;20.23;;
50012;SDS011;35901;48.694;9.476;2024-03-23T03:18:13;21.80;;;18.70;;
50012;SDS011;35901;48.694;9.476;2024-03-23T03:20:39;26.73;;;22.53;;
50012;SDS011;35901;48.694;9.476;2024-03-23T03:23:05;21.47;;;18.53;;
50012;SDS011;35901;48.694;9.476;2024-03-23T03:25:31;25.20;;;20.83;;
50012;SDS011;35901;48.694;9.476;2024-03-23T03:27:57;24.40;;;21.33;;
50012;SDS011;35901;48.694;9.476;2024-03-23T03:30:23;26.67;;;22.47;;
50012;SDS011;35901;48.694;9.476;2024-03-23T03:32:49;26.67;;;22.63;;
50012;SDS011;35901;48.694;9.476;2024-03-23T03:35:16;24.97;;;20.97;;
50012;SDS011;35901;48.694;9.476;2024-03-23T03:37:41;20.37;;;17.73;;
50012;SDS011;35901;48.694;9.476;2024-03-23T03:40:07;22.13;;;18.97;;
50012;SDS011;35901;48.694;9.476;2024-03-23T03:42:34;19.47;;;17.40;;
50012;SDS011;35901;48.694;9.476;2024-03-23T03:45:00;21.20;;;18.43;;
50012;SDS011;35901;48.694;9.476;2024-03-23T03:47:26;20.40;;;17.60;;
50012;SDS011;35901;48.694;9.476;2024-03-23T03:49:51;23.43;;;19.13;;
50012;SDS011;35901;48.694;9.476;2024-03-23T03:52:17;22.37;;;19.00;;
50012;SDS011;35901;48.694;9.476;2024-03-23T03:54:43;21.17;;;17.33;;
50012;SDS011;35901;48.694;9.476;2024-03-23T03:57:08;21.63;;;18.17;;
50012;SDS011;35901;48.694;9.476;2024-03-23T03:59:34;18.73;;;16.27;;
50012;SDS011;35901;48.694;9.476;2024-03-23T04:01:59;18.90;;;16.40;;
50012;SDS011;35901;48.694;9.476;2024-03-23T04:04:25;20.83;;;18.13;;
50012;SDS011;35901;48.694;9.476;2024-03-23T04:06:57;24.63;;;20.77;;
50012;SDS011;35901;48.694;9.476;2024-03-23T04:09:24;33.20;;;25.47;;
50012;SDS011;35901;48.694;9.476;2024-03-23T04:11:50;34.73;;;26.70;;
50012;SDS011;35901;48.694;9.476;2024-03-23T04:14:16;29.57;;;25.43;;
50012;SDS011;35901;48.694;9.476;2024-03-23T04:16:41;33.73;;;24.87;;
50012;SDS011;35901;48.694;9.476;2024-03-23T04:19:07;28.53;;;23.67;;
50012;SDS011;35901;48.694;9.476;2024-03-23T04:21:33;25.67;;;21.47;;
50012;SDS011;35901;48.694;9.476;2024-03-23T04:23:59;25.50;;;21.63;;
50012;SDS011;35901;48.694;9.476;2024-03-23T04:26:25;21.13;;;18.57;;
50012;SDS011;35901;48.694;9.476;2024-03-23T04:28:50;26.60;;;20.80;;
50012;SDS011;35901;48.694;9.476;2024-03-23T04:31:16;25.33;;;21.33;;
50012;SDS011;35901;48.694;9.476;2024-03-23T04:33:41;24.50;;;20.43;;
50012;SDS011;35901;48.694;9.476;2024-03-23T04:36:07;26.27;;;21.43;;
50012;SDS011;35901;48.694;9.476;2024-03-23T04:38:33;23.50;;;20.13;;
50012;SDS011;35901;48.694;9.476;2024-03-23T04:40:59;23.67;;;19.90;;
50012;SDS011;35901;48.694;9.476;2024-03-23T04:43:25;23.10;;;19.83;;
50012;SDS011;35901;48.694;9.476;2024-03-23T04:45:52;24.10;;;18.80;;
50012;SDS011;35901;48.694;9.476;2024-03-23T04:48:21;21.37;;;18.60;;
50012;SDS011;35901;48.694;9.476;2024-03-23T04:50:48;21.23;;;17.40;;
50012;SDS011;35901;48.694;9.476;2024-03-23T04:53:14;18.63;;;15.47;;
50012;SDS011;35901;48.694;9.476;2024-03-23T04:55:41;18.83;;;16.80;;
50012;SDS011;35901;48.694;9.476;2024-03-23T04:58:07;19.67;;;16.20;;
50012;SDS011;35901;48.694;9.476;2024-03-23T05:00:33;17.33;;;15.07;;
50012;SDS011;35901;48.694;9.476;2024-03-23T05:02:59;17.03;;;13.57;;
50012;SDS011;35901;48.694;9.476;2024-03-23T05:05:24;15.63;;;13.93;;
50012;SDS011;35901;48.694;9.476;2024-03-23T05:07:50;17.60;;;14.07;;
50012;SDS011;35901;48.694;9.476;2024-03-23T05:10:16;16.70;;;14.87;;
50012;SDS011;35901;48.694;9.476;2024-03-23T05:12:42;17.00;;;14.30;;
50012;SDS011;35901;48.694;9.476;2024-03-23T05:15:08;17.30;;;14.77;;
50012;SDS011;35901;48.694;9.476;2024-03-23T05:17:33;19.63;;;14.80;;
50012;SDS011;35901;48.694;9.476;2024-03-23T05:20:00;17.13;;;13.70;;
50012;SDS011;35901;48.694;9.476;2024-03-23T05:22:25;17.93;;;13.87;;
50012;SDS011;35901;48.694;9.476;2024-03-23T05:24:52;19.67;;;13.10;;
50012;SDS011;35901;48.694;9.476;2024-03-23T05:27:24;18.70;;;15.07;;
50012;SDS011;35901;48.694;9.476;2024-03-23T05:29:50;20.57;;;15.97;;
50012;SDS011;35901;48.694;9.476;2024-03-23T05:32:16;27.67;;;21.60;;
50012;SDS011;35901;48.694;9.476;2024-03-23T05:34:41;31.73;;;24.70;;
50012;SDS011;35901;48.694;9.476;2024-03-23T05:37:07;33.70;;;25.20;;
50012;SDS011;35901;48.694;9.476;2024-03-23T05:39:33;32.53;;;26.90;;
50012;SDS011;35901;48.694;9.476;2024-03-23T05:41:59;37.13;;;26.53;;
50012;SDS011;35901;48.694;9.476;2024-03-23T05:44:24;33.37;;;25.83;;
50012;SDS011;35901;48.694;9.476;2024-03-23T05:46:50;31.53;;;24.37;;
50012;SDS011;35901;48.694;9.476;2024-03-23T05:49:16;29.60;;;23.57;;
50012;SDS011;35901;48.694;9.476;2024-03-23T05:51:45;32.07;;;24.07;;
50012;SDS011;35901;48.694;9.476;2024-03-23T05:54:10;32.23;;;22.20;;
50012;SDS011;35901;48.694;9.476;2024-03-23T05:56:36;29.07;;;21.93;;
50012;SDS011;35901;48.694;9.476;2024-03-23T05:59:12;30.10;;;21.87;;
50012;SDS011;35901;48.694;9.476;2024-03-23T06:01:37;33.63;;;22.30;;
50012;SDS011;35901;48.694;9.476;2024-03-23T06:04:04;30.33;;;22.77;;
50012;SDS011;35901;48.694;9.476;2024-03-23T06:06:29;29.97;;;22.20;;
50012;SDS011;35901;48.694;9.476;2024-03-23T06:08:55;31.20;;;22.53;;
50012;SDS011;35901;48.694;9.476;2024-03-23T06:11:21;29.93;;;22.57;;
50012;SDS011;35901;48.694;9.476;2024-03-23T06:13:47;28.57;;;21.30;;
50012;SDS011;35901;48.694;9.476;2024-03-23T06:16:12;31.23;;;21.57;;
50012;SDS011;35901;48.694;9.476;2024-03-23T06:18:39;26.10;;;19.40;;
50012;SDS011;35901;48.694;9.476;2024-03-23T06:21:04;26.33;;;20.40;;
50012;SDS011;35901;48.694;9.476;2024-03-23T06:23:30;25.53;;;19.30;;
50012;SDS011;35901;48.694;9.476;2024-03-23T06:25:56;26.17;;;19.37;;
50012;SDS011;35901;48.694;9.476;2024-03-23T06:28:21;25.83;;;19.07;;
50012;SDS011;35901;48.694;9.476;2024-03-23T06:30:47;27.40;;;19.50;;
50012;SDS011;35901;48.694;9.476;2024-03-23T06:33:13;26.97;;;19.77;;
50012;SDS011;35901;48.694;9.476;2024-03-23T06:35:39;22.60;;;16.77;;
50012;SDS011;35901;48.694;9.476;2024-03-23T06:38:05;17.97;;;13.10;;
50012;SDS011;35901;48.694;9.476;2024-03-23T06:40:31;16.33;;;11.93;;
50012;SDS011;35901;48.694;9.476;2024-03-23T06:42:56;12.83;;;10.00;;
50012;SDS011;35901;48.694;9.476;2024-03-23T06:45:22;9.83;;;7.90;;
50012;SDS011;35901;48.694;9.476;2024-03-23T06:47:48;9.37;;;6.97;;
50012;SDS011;35901;48.694;9.476;2024-03-23T06:50:15;6.20;;;5.47;;
50012;SDS011;35901;48.694;9.476;2024-03-23T06:52:41;4.77;;;4.37;;
50012;SDS011;35901;48.694;9.476;2024-03-23T06:55:07;3.80;;;3.10;;
50012;SDS011;35901;48.694;9.476;2024-03-23T06:57:33;2.67;;;2.47;;
50012;SDS011;35901;48.694;9.476;2024-03-23T06:59:59;2.20;;;2.00;;
50012;SDS011;35901;48.694;9.476;2024-03-23T07:02:24;2.23;;;2.00;;
50012;SDS011;35901;48.694;9.476;2024-03-23T07:04:50;1.60;;;1.50;;
50012;SDS011;35901;48.694;9.476;2024-03-23T07:07:16;1.67;;;1.57;;
50012;SDS011;35901;48.694;9.476;2024-03-23T07:09:41;1.60;;;1.50;;
50012;SDS011;35901;48.694;9.476;2024-03-23T07:12:07;1.50;;;1.40;;
50012;SDS011;35901;48.694;9.476;2024-03-23T07:14:33;1.30;;;1.20;;
50012;SDS011;35901;48.694;9.476;2024-03-23T07:16:58;1.10;;;1.10;;
50012;SDS011;35901;48.694;9.476;2024-03-23T07:19:24;1.17;;;1.10;;
50012;SDS011;35901;48.694;9.476;2024-03-23T07:21:50;1.00;;;1.00;;
50012;SDS011;35901;48.694;9.476;2024-03-23T07:24:15;1.00;;;1.00;;
50012;SDS011;35901;48.694;9.476;2024-03-23T07:26:41;1.40;;;1.30;;
50012;SDS011;35901;48.694;9.476;2024-03-23T07:29:07;1.00;;;1.00;;
50012;SDS011;35901;48.694;9.476;2024-03-23T07:31:32;1.50;;;0.90;;
50012;SDS011;35901;48.694;9.476;2024-03-23T07:33:59;0.80;;;0.80;;
50012;SDS011;35901;48.694;9.476;2024-03-23T07:36:24;1.23;;;1.00;;
50012;SDS011;35901;48.694;9.476;2024-03-23T07:38:51;1.20;;;1.03;;
50012;SDS011;35901;48.694;9.476;2024-03-23T07:41:18;1.07;;;1.07;;
50012;SDS011;35901;48.694;9.476;2024-03-23T07:43:44;1.20;;;1.20;;
50012;SDS011;35901;48.694;9.476;2024-03-23T07:46:11;1.37;;;1.30;;
50012;SDS011;35901;48.694;9.476;2024-03-23T07:48:37;1.17;;;1.17;;
50012;SDS011;35901;48.694;9.476;2024-03-23T07:51:05;1.30;;;1.20;;
50012;SDS011;35901;48.694;9.476;2024-03-23T07:53:32;0.80;;;0.80;;
50012;SDS011;35901;48.694;9.476;2024-03-23T07:55:59;0.70;;;0.70;;
50012;SDS011;35901;48.694;9.476;2024-03-23T07:58:27;1.10;;;1.00;;
50012;SDS011;35901;48.694;9.476;2024-03-23T08:00:53;0.90;;;0.90;;
50012;SDS011;35901;48.694;9.476;2024-03-23T08:03:19;0.73;;;0.73;;
50012;SDS011;35901;48.694;9.476;2024-03-23T08:05:46;0.90;;;0.87;;
50012;SDS011;35901;48.694;9.476;2024-03-23T08:08:12;0.90;;;0.90;;
50012;SDS011;35901;48.694;9.476;2024-03-23T08:10:48;0.70;;;0.70;;
50012;SDS011;35901;48.694;9.476;2024-03-23T08:13:14;0.90;;;0.90;;
50012;SDS011;35901;48.694;9.476;2024-03-23T08:15:40;0.60;;;0.60;;
50012;SDS011;35901;48.694;9.476;2024-03-23T08:18:06;0.60;;;0.60;;
50012;SDS011;35901;48.694;9.476;2024-03-23T08:20:32;0.77;;;0.70;;
50012;SDS011;35901;48.694;9.476;2024-03-23T08:22:57;0.80;;;0.80;;
50012;SDS011;35901;48.694;9.476;2024-03-23T08:25:23;0.87;;;0.87;;
50012;SDS011;35901;48.694;9.476;2024-03-23T08:27:49;0.77;;;0.77;;
50012;SDS011;35901;48.694;9.476;2024-03-23T08:30:14;0.80;;;0.80;;
50012;SDS011;35901;48.694;9.476;2024-03-23T08:32:40;0.70;;;0.70;;
50012;SDS011;35901;48.694;9.476;2024-03-23T08:35:07;0.93;;;0.90;;
50012;SDS011;35901;48.694;9.476;2024-03-23T08:37:33;1.10;;;1.10;;
50012;SDS011;35901;48.694;9.476;2024-03-23T08:39:59;0.80;;;0.80;;
50012;SDS011;35901;48.694;9.476;2024-03-23T08:42:25;1.07;;;1.07;;
50012;SDS011;35901;48.694;9.476;2024-03-23T08:44:50;0.80;;;0.80;;
50012;SDS011;35901;48.694;9.476;2024-03-23T08:47:16;1.00;;;1.00;;
50012;SDS011;35901;48.694;9.476;2024-03-23T08:49:42;1.30;;;1.20;;
50012;SDS011;35901;48.694;9.476;2024-03-23T08:52:09;1.00;;;1.00;;
50012;SDS011;35901;48.694;9.476;2024-03-23T08:54:34;1.10;;;1.10;;
50012;SDS011;35901;48.694;9.476;2024-03-23T08:57:00;1.27;;;1.20;;
50012;SDS011;35901;48.694;9.476;2024-03-23T08:59:26;1.17;;;1.13;;
50012;SDS011;35901;48.694;9.476;2024-03-23T09:01:52;1.10;;;1.10;;
50012;SDS011;35901;48.694;9.476;2024-03-23T09:04:18;1.30;;;1.10;;
50012;SDS011;35901;48.694;9.476;2024-03-23T09:06:44;1.60;;;1.50;;
50012;SDS011;35901;48.694;9.476;2024-03-23T09:09:09;1.50;;;1.30;;
50012;SDS011;35901;48.694;9.476;2024-03-23T09:11:35;1.57;;;1.17;;
50012;SDS011;35901;48.694;9.476;2024-03-23T09:14:02;1.60;;;1.50;;
50012;SDS011;35901;48.694;9.476;2024-03-23T09:16:28;2.47;;;1.70;;
50012;SDS011;35901;48.694;9.476;2024-03-23T09:18:54;1.70;;;1.60;;
50012;SDS011;35901;48.694;9.476;2024-03-23T09:21:23;2.97;;;1.87;;
50012;SDS011;35901;48.694;9.476;2024-03-23T09:23:49;2.80;;;1.50;;
50012;SDS011;35901;48.694;9.476;2024-03-23T09:26:15;3.83;;;1.43;;
50012;SDS011;35901;48.694;9.476;2024-03-23T09:28:40;2.97;;;1.30;;
50012;SDS011;35901;48.694;9.476;2024-03-23T09:31:07;1.40;;;1.30;;
50012;SDS011;35901;48.694;9.476;2024-03-23T09:33:34;3.07;;;1.80;;
50012;SDS011;35901;48.694;9.476;2024-03-23T09:36:06;2.17;;;1.80;;
50012;SDS011;35901;48.694;9.476;2024-03-23T09:38:33;2.53;;;1.90;;
50012;SDS011;35901;48.694;9.476;2024-03-23T09:40:59;3.93;;;2.20;;
50012;SDS011;35901;48.694;9.476;2024-03-23T09:43:25;3.90;;;2.40;;
50012;SDS011;35901;48.694;9.476;2024-03-23T09:45:53;3.60;;;2.47;;
50012;SDS011;35901;48.694;9.476;2024-03-23T09:48:18;5.53;;;2.60;;
50012;SDS011;35901;48.694;9.476;2024-03-23T09:50:44;3.20;;;2.40;;
50012;SDS011;35901;48.694;9.476;2024-03-23T09:53:11;3.83;;;2.67;;
50012;SDS011;35901;48.694;9.476;2024-03-23T09:55:39;4.27;;;2.90;;
50012;SDS011;35901;48.694;9.476;2024-03-23T09:58:06;4.03;;;2.53;;
50012;SDS011;35901;48.694;9.476;2024-03-23T10:00:32;3.37;;;2.23;;
50012;SDS011;35901;48.694;9.476;2024-03-23T10:03:01;3.87;;;2.10;;
50012;SDS011;35901;48.694;9.476;2024-03-23T10:05:27;3.70;;;2.30;;
50012;SDS011;35901;48.694;9.476;2024-03-23T10:07:54;3.10;;;1.87;;
50012;SDS011;35901;48.694;9.476;2024-03-23T10:10:20;3.33;;;2.30;;
50012;SDS011;35901;48.694;9.476;2024-03-23T10:12:49;3.63;;;2.00;;
50012;SDS011;35901;48.694;9.476;2024-03-23T10:15:19;3.77;;;2.43;;
50012;SDS011;35901;48.694;9.476;2024-03-23T10:17:51;7.00;;;3.20;;
50012;SDS011;35901;48.694;9.476;2024-03-23T10:20:20;4.90;;;2.50;;
50012;SDS011;35901;48.694;9.476;2024-03-23T10:22:50;5.87;;;2.80;;
50012;SDS011;35901;48.694;9.476;2024-03-23T10:25:24;5.97;;;3.07;;
50012;SDS011;35901;48.694;9.476;2024-03-23T10:27:59;3.60;;;2.50;;
50012;SDS011;35901;48.694;9.476;2024-03-23T10:30:25;5.13;;;2.83;;
50012;SDS011;35901;48.694;9.476;2024-03-23T10:33:06;4.47;;;2.70;;
50012;SDS011;35901;48.694;9.476;2024-03-23T10:35:32;6.00;;;3.07;;
50012;SDS011;35901;48.694;9.476;2024-03-23T10:37:58;5.40;;;2.77;;
50012;SDS011;35901;48.694;9.476;2024-03-23T10:40:23;4.00;;;2.60;;
50012;SDS011;35901;48.694;9.476;2024-03-23T10:42:52;4.73;;;3.00;;
50012;SDS011;35901;48.694;9.476;2024-03-23T10:45:18;5.77;;;2.60;;
50012;SDS011;35901;48.694;9.476;2024-03-23T10:47:44;4.50;;;2.73;;
50012;SDS011;35901;48.694;9.476;2024-03-23T10:50:10;4.87;;;2.70;;
50012;SDS011;35901;48.694;9.476;2024-03-23T10:52:35;4.17;;;2.33;;
50012;SDS011;35901;48.694;9.476;2024-03-23T10:55:04;7.00;;;2.63;;
50012;SDS011;35901;48.694;9.476;2024-03-23T11:00:09;5.50;;;2.77;;
50012;SDS011;35901;48.694;9.476;2024-03-23T11:02:37;4.83;;;2.93;;
50012;SDS011;35901;48.694;9.476;2024-03-23T11:05:27;4.93;;;2.57;;
50012;SDS011;35901;48.694;9.476;2024-03-23T11:07:52;6.93;;;2.80;;
50012;SDS011;35901;48.694;9.476;2024-03-23T11:12:54;5.63;;;2.67;;
50012;SDS011;35901;48.694;9.476;2024-03-23T11:15:20;4.47;;;2.43;;
50012;SDS011;35901;48.694;9.476;2024-03-23T11:18:02;5.17;;;3.10;;
50012;SDS011;35901;48.694;9.476;2024-03-23T11:20:31;4.73;;;3.00;;
50012;SDS011;35901;48.694;9.476;2024-03-23T11:22:57;5.17;;;3.20;;
50012;SDS011;35901;48.694;9.476;2024-03-23T11:25:24;8.40;;;3.83;;
50012;SDS011;35901;48.694;9.476;2024-03-23T11:27:52;4.03;;;2.33;;
50012;SDS011;35901;48.694;9.476;2024-03-23T11:32:49;5.50;;;3.03;;
50012;SDS011;35901;48.694;9.476;2024-03-23T11:35:29;2.10;;;1.90;;
50012;SDS011;35901;48.694;9.476;2024-03-23T11:40:37;3.07;;;2.30;;
50012;SDS011;35901;48.694;9.476;2024-03-23T11:43:05;2.77;;;2.00;;
50012;SDS011;35901;48.694;9.476;2024-03-23T11:45:39;3.57;;;2.10;;
50012;SDS011;35901;48.694;9.476;2024-03-23T11:48:10;2.90;;;2.33;;
50012;SDS011;35901;48.694;9.476;2024-03-23T11:50:41;2.20;;;2.00;;
50012;SDS011;35901;48.694;9.476;2024-03-23T11:53:09;4.43;;;2.50;;
50012;SDS011;35901;48.694;9.476;2024-03-23T11:58:12;4.13;;;2.60;;
50012;SDS011;35901;48.694;9.476;2024-03-23T12:00:39;3.10;;;2.80;;
50012;SDS011;35901;48.694;9.476;2024-03-23T12:03:05;5.37;;;2.83;;
50012;SDS011;35901;48.694;9.476;2024-03-23T12:05:31;3.17;;;2.53;;
50012;SDS011;35901;48.694;9.476;2024-03-23T12:10:50;2.63;;;2.20;;
50012;SDS011;35901;48.694;9.476;2024-03-23T12:13:29;5.17;;;3.00;;
50012;SDS011;35901;48.694;9.476;2024-03-23T12:15:58;2.87;;;2.50;;
50012;SDS011;35901;48.694;9.476;2024-03-23T12:18:41;3.47;;;2.50;;
50012;SDS011;35901;48.694;9.476;2024-03-23T12:21:10;3.10;;;2.30;;
50012;SDS011;35901;48.694;9.476;2024-03-23T12:23:38;3.93;;;2.30;;
50012;SDS011;35901;48.694;9.476;2024-03-23T12:26:04;2.47;;;2.23;;
50012;SDS011;35901;48.694;9.476;2024-03-23T12:28:30;2.53;;;2.30;;
50012;SDS011;35901;48.694;9.476;2024-03-23T12:30:55;2.60;;;2.27;;
50012;SDS011;35901;48.694;9.476;2024-03-23T12:33:21;3.23;;;2.50;;
50012;SDS011;35901;48.694;9.476;2024-03-23T12:35:47;5.10;;;2.80;;
50012;SDS011;35901;48.694;9.476;2024-03-23T12:38:13;2.60;;;1.80;;
50012;SDS011;35901;48.694;9.476;2024-03-23T12:40:39;3.37;;;1.70;;
50012;SDS011;35901;48.694;9.476;2024-03-23T12:43:06;3.73;;;1.87;;
50012;SDS011;35901;48.694;9.476;2024-03-23T12:45:32;4.20;;;1.83;;
50012;SDS011;35901;48.694;9.476;2024-03-23T12:47:58;2.97;;;1.80;;
50012;SDS011;35901;48.694;9.476;2024-03-23T12:50:24;2.97;;;1.60;;
50012;SDS011;35901;48.694;9.476;2024-03-23T12:52:49;2.07;;;1.67;;
50012;SDS011;35901;48.694;9.476;2024-03-23T12:55:16;3.50;;;1.70;;
50012;SDS011;35901;48.694;9.476;2024-03-23T12:57:42;3.90;;;1.87;;
50012;SDS011;35901;48.694;9.476;2024-03-23T13:00:08;4.30;;;1.93;;
50012;SDS011;35901;48.694;9.476;2024-03-23T13:02:36;3.30;;;1.70;;
50012;SDS011;35901;48.694;9.476;2024-03-23T13:05:03;6.20;;;2.23;;
50012;SDS011;35901;48.694;9.476;2024-03-23T13:07:30;3.83;;;1.90;;
50012;SDS011;35901;48.694;9.476;2024-03-23T13:09:55;5.80;;;2.20;;
50012;SDS011;35901;48.694;9.476;2024-03-23T13:12:22;9.07;;;3.30;;
50012;SDS011;35901;48.694;9.476;2024-03-23T13:14:48;6.47;;;2.73;;
50012;SDS011;35901;48.694;9.476;2024-03-23T13:17:14;4.90;;;2.10;;
50012;SDS011;35901;48.694;9.476;2024-03-23T13:19:40;4.20;;;2.30;;
50012;SDS011;35901;48.694;9.476;2024-03-23T13:22:06;7.03;;;3.20;;
50012;SDS011;35901;48.694;9.476;2024-03-23T13:24:31;4.47;;;2.43;;
50012;SDS011;35901;48.694;9.476;2024-03-23T13:26:57;4.13;;;2.37;;
50012;SDS011;35901;48.694;9.476;2024-03-23T13:29:23;6.67;;;2.53;;
50012;SDS011;35901;48.694;9.476;2024-03-23T13:31:50;4.40;;;2.23;;
50012;SDS011;35901;48.694;9.476;2024-03-23T13:34:17;6.20;;;2.33;;
50012;SDS011;35901;48.694;9.476;2024-03-23T13:36:46;7.33;;;2.63;;
50012;SDS011;35901;48.694;9.476;2024-03-23T13:39:13;3.13;;;2.33;;
50012;SDS011;35901;48.694;9.476;2024-03-23T13:41:40;4.20;;;2.00;;
50012;SDS011;35901;48.694;9.476;2024-03-23T13:44:10;3.00;;;2.00;;
50012;SDS011;35901;48.694;9.476;2024-03-23T13:46:37;4.13;;;2.47;;
50012;SDS011;35901;48.694;9.476;2024-03-23T13:49:18;5.33;;;2.33;;
50012;SDS011;35901;48.694;9.476;2024-03-23T13:51:53;3.10;;;1.80;;
50012;SDS011;35901;48.694;9.476;2024-03-23T13:54:20;2.93;;;2.00;;
50012;SDS011;35901;48.694;9.476;2024-03-23T13:56:50;3.47;;;1.73;;
50012;SDS011;35901;48.694;9.476;2024-03-23T13:59:16;3.90;;;1.70;;
50012;SDS011;35901;48.694;9.476;2024-03-23T14:01:45;4.20;;;1.73;;
50012;SDS011;35901;48.694;9.476;2024-03-23T14:04:11;2.30;;;1.60;;
50012;SDS011;35901;48.694;9.476;2024-03-23T14:06:37;2.70;;;1.30;;
50012;SDS011;35901;48.694;9.476;2024-03-23T14:09:03;1.10;;;1.00;;
50012;SDS011;35901;48.694;9.476;2024-03-23T14:11:39;3.07;;;1.50;;
50012;SDS011;35901;48.694;9.476;2024-03-23T14:14:06;1.90;;;1.30;;
50012;SDS011;35901;48.694;9.476;2024-03-23T14:16:33;2.73;;;1.40;;
50012;SDS011;35901;48.694;9.476;2024-03-23T14:18:59;2.50;;;1.20;;
50012;SDS011;35901;48.694;9.476;2024-03-23T14:21:25;2.47;;;1.20;;
50012;SDS011;35901;48.694;9.476;2024-03-23T14:23:51;2.60;;;1.50;;
50012;SDS011;35901;48.694;9.476;2024-03-23T14:26:21;4.17;;;1.50;;
50012;SDS011;35901;48.694;9.476;2024-03-23T14:28:47;4.73;;;1.53;;
50012;SDS011;35901;48.694;9.476;2024-03-23T14:31:12;3.43;;;2.00;;
50012;SDS011;35901;48.694;9.476;2024-03-23T14:33:38;2.50;;;1.50;;
50012;SDS011;35901;48.694;9.476;2024-03-23T14:36:12;2.40;;;1.40;;
50012;SDS011;35901;48.694;9.476;2024-03-23T14:38:42;3.50;;;1.90;;
50012;SDS011;35901;48.694;9.476;2024-03-23T14:41:12;3.07;;;2.00;;
50012;SDS011;35901;48.694;9.476;2024-03-23T14:43:38;4.73;;;2.00;;
50012;SDS011;35901;48.694;9.476;2024-03-23T14:46:10;5.73;;;2.23;;
50012;SDS011;35901;48.694;9.476;2024-03-23T14:48:42;6.20;;;3.60;;
50012;SDS011;35901;48.694;9.476;2024-03-23T14:51:09;5.97;;;3.10;;
50012;SDS011;35901;48.694;9.476;2024-03-23T14:53:45;4.87;;;3.50;;
50012;SDS011;35901;48.694;9.476;2024-03-23T14:56:11;4.00;;;3.10;;
50012;SDS011;35901;48.694;9.476;2024-03-23T14:58:38;4.13;;;2.47;;
50012;SDS011;35901;48.694;9.476;2024-03-23T15:01:04;5.03;;;3.50;;
50012;SDS011;35901;48.694;9.476;2024-03-23T15:03:38;3.13;;;1.33;;
50012;SDS011;35901;48.694;9.476;2024-03-23T15:06:04;2.27;;;1.13;;
50012;SDS011;35901;48.694;9.476;2024-03-23T15:08:31;2.83;;;1.20;;
50012;SDS011;35901;48.694;9.476;2024-03-23T15:11:00;3.70;;;1.50;;
50012;SDS011;35901;48.694;9.476;2024-03-23T15:13:30;2.60;;;0.90;;
50012;SDS011;35901;48.694;9.476;2024-03-23T15:15:57;3.07;;;1.17;;
50012;SDS011;35901;48.694;9.476;2024-03-23T15:18:22;1.43;;;1.10;;
50012;SDS011;35901;48.694;9.476;2024-03-23T15:20:58;2.47;;;1.30;;
50012;SDS011;35901;48.694;9.476;2024-03-23T15:23:28;2.77;;;1.30;;
50012;SDS011;35901;48.694;9.476;2024-03-23T15:25:55;1.67;;;1.10;;
50012;SDS011;35901;48.694;9.476;2024-03-23T15:28:21;2.00;;;1.10;;
50012;SDS011;35901;48.694;9.476;2024-03-23T15:30:48;1.90;;;1.17;;
50012;SDS011;35901;48.694;9.476;2024-03-23T15:33:14;1.57;;;1.10;;
50012;SDS011;35901;48.694;9.476;2024-03-23T15:35:40;1.37;;;0.90;;
50012;SDS011;35901;48.694;9.476;2024-03-23T15:38:06;2.47;;;1.40;;
50012;SDS011;35901;48.694;9.476;2024-03-23T15:40:31;1.23;;;1.10;;
50012;SDS011;35901;48.694;9.476;2024-03-23T15:42:57;3.67;;;1.20;;
50012;SDS011;35901;48.694;9.476;2024-03-23T15:45:23;2.23;;;1.27;;
50012;SDS011;35901;48.694;9.476;2024-03-23T15:47:48;2.60;;;1.50;;